sensor_id;sensor_type;location;lat;lon;timestamp;P1;durP1;ratioP1;P2;durP2;ratioP2
48925;SDS011;39838;59.938;30.642;2022-08-11T00:00:20;11.05;;;7.22;;
48925;SDS011;39838;59.938;30.642;2022-08-11T00:02:58;13.48;;;7.15;;
48925;SDS011;39838;59.938;30.642;2022-08-11T00:05:32;20.85;;;7.45;;
48925;SDS011;39838;59.938;30.642;2022-08-11T00:08:08;16.85;;;7.80;;
48925;SDS011;39838;59.938;30.642;2022-08-11T00:10:36;12.77;;;7.10;;
48925;SDS011;39838;59.938;30.642;2022-08-11T00:13:04;11.77;;;7.53;;
48925;SDS011;39838;59.938;30.642;2022-08-11T00:15:36;14.60;;;6.93;;
48925;SDS011;39838;59.938;30.642;2022-08-11T00:18:07;16.27;;;7.90;;
48925;SDS011;39838;59.938;30.642;2022-08-11T00:20:37;13.70;;;7.40;;
48925;SDS011;39838;59.938;30.642;2022-08-11T00:23:07;15.18;;;8.55;;
48925;SDS011;39838;59.938;30.642;2022-08-11T00:25:40;15.20;;;8.95;;
48925;SDS011;39838;59.938;30.642;2022-08-11T00:28:27;14.95;;;8.95;;
48925;SDS011;39838;59.938;30.642;2022-08-11T00:30:57;15.82;;;9.50;;
48925;SDS011;39838;59.938;30.642;2022-08-11T00:33:31;17.67;;;9.57;;
48925;SDS011;39838;59.938;30.642;2022-08-11T00:36:01;16.95;;;9.23;;
48925;SDS011;39838;59.938;30.642;2022-08-11T00:38:32;17.35;;;9.60;;
48925;SDS011;39838;59.938;30.642;2022-08-11T00:41:15;13.35;;;8.73;;
48925;SDS011;39838;59.938;30.642;2022-08-11T00:46:47;18.20;;;9.70;;
48925;SDS011;39838;59.938;30.642;2022-08-11T00:49:27;17.17;;;10.20;;
48925;SDS011;39838;59.938;30.642;2022-08-11T00:52:09;23.88;;;10.55;;
48925;SDS011;39838;59.938;30.642;2022-08-11T00:54:59;20.42;;;10.63;;
48925;SDS011;39838;59.938;30.642;2022-08-11T01:01:10;25.90;;;11.30;;
48925;SDS011;39838;59.938;30.642;2022-08-11T01:04:08;23.42;;;11.38;;
48925;SDS011;39838;59.938;30.642;2022-08-11T01:06:48;17.45;;;9.85;;
48925;SDS011;39838;59.938;30.642;2022-08-11T01:09:30;23.92;;;11.02;;
48925;SDS011;39838;59.938;30.642;2022-08-11T01:12:27;19.33;;;10.05;;
48925;SDS011;39838;59.938;30.642;2022-08-11T01:21:29;22.33;;;10.10;;
48925;SDS011;39838;59.938;30.642;2022-08-11T01:27:55;19.75;;;9.88;;
48925;SDS011;39838;59.938;30.642;2022-08-11T01:30:47;23.35;;;11.00;;
48925;SDS011;39838;59.938;30.642;2022-08-11T01:43:29;20.42;;;10.15;;
48925;SDS011;39838;59.938;30.642;2022-08-11T01:46:42;15.80;;;10.00;;
48925;SDS011;39838;59.938;30.642;2022-08-11T01:49:16;22.00;;;10.82;;
48925;SDS011;39838;59.938;30.642;2022-08-11T01:52:06;14.80;;;9.95;;
48925;SDS011;39838;59.938;30.642;2022-08-11T01:54:43;19.63;;;10.30;;
48925;SDS011;39838;59.938;30.642;2022-08-11T01:57:30;19.25;;;10.18;;
48925;SDS011;39838;59.938;30.642;2022-08-11T02:00:06;25.10;;;10.07;;
48925;SDS011;39838;59.938;30.642;2022-08-11T02:02:38;21.00;;;11.20;;
48925;SDS011;39838;59.938;30.642;2022-08-11T02:08:27;19.13;;;9.93;;
48925;SDS011;39838;59.938;30.642;2022-08-11T02:11:11;17.90;;;10.00;;
48925;SDS011;39838;59.938;30.642;2022-08-11T02:13:58;18.77;;;10.38;;
48925;SDS011;39838;59.938;30.642;2022-08-11T02:16:34;20.40;;;11.27;;
48925;SDS011;39838;59.938;30.642;2022-08-11T02:19:19;18.08;;;10.15;;
48925;SDS011;39838;59.938;30.642;2022-08-11T02:22:08;16.90;;;9.40;;
48925;SDS011;39838;59.938;30.642;2022-08-11T02:25:05;18.48;;;10.23;;
48925;SDS011;39838;59.938;30.642;2022-08-11T02:27:35;21.63;;;9.88;;
48925;SDS011;39838;59.938;30.642;2022-08-11T02:30:09;23.67;;;11.05;;
48925;SDS011;39838;59.938;30.642;2022-08-11T02:32:44;19.85;;;10.18;;
48925;SDS011;39838;59.938;30.642;2022-08-11T02:35:36;17.85;;;9.80;;
48925;SDS011;39838;59.938;30.642;2022-08-11T02:38:13;15.77;;;9.52;;
48925;SDS011;39838;59.938;30.642;2022-08-11T02:40:47;18.00;;;9.43;;
48925;SDS011;39838;59.938;30.642;2022-08-11T02:46:17;16.40;;;10.63;;
48925;SDS011;39838;59.938;30.642;2022-08-11T02:48:52;17.27;;;10.52;;
48925;SDS011;39838;59.938;30.642;2022-08-11T02:51:48;23.77;;;10.98;;
48925;SDS011;39838;59.938;30.642;2022-08-11T02:54:26;21.52;;;11.05;;
48925;SDS011;39838;59.938;30.642;2022-08-11T02:57:03;29.50;;;10.88;;
48925;SDS011;39838;59.938;30.642;2022-08-11T02:59:40;21.63;;;10.40;;
48925;SDS011;39838;59.938;30.642;2022-08-11T03:02:23;18.45;;;10.05;;
48925;SDS011;39838;59.938;30.642;2022-08-11T03:05:02;19.70;;;11.10;;
48925;SDS011;39838;59.938;30.642;2022-08-11T03:07:40;20.38;;;10.40;;
48925;SDS011;39838;59.938;30.642;2022-08-11T03:10:17;27.00;;;10.77;;
48925;SDS011;39838;59.938;30.642;2022-08-11T03:12:50;26.85;;;11.55;;
48925;SDS011;39838;59.938;30.642;2022-08-11T03:15:41;35.45;;;12.93;;
48925;SDS011;39838;59.938;30.642;2022-08-11T03:18:33;29.73;;;13.50;;
48925;SDS011;39838;59.938;30.642;2022-08-11T03:21:21;30.85;;;12.52;;
48925;SDS011;39838;59.938;30.642;2022-08-11T03:23:53;35.88;;;12.98;;
48925;SDS011;39838;59.938;30.642;2022-08-11T03:26:28;34.05;;;13.65;;
48925;SDS011;39838;59.938;30.642;2022-08-11T03:29:00;29.83;;;13.23;;
48925;SDS011;39838;59.938;30.642;2022-08-11T03:31:34;25.20;;;12.73;;
48925;SDS011;39838;59.938;30.642;2022-08-11T03:34:08;26.67;;;13.88;;
48925;SDS011;39838;59.938;30.642;2022-08-11T03:36:45;27.98;;;13.05;;
48925;SDS011;39838;59.938;30.642;2022-08-11T03:39:31;30.83;;;12.32;;
48925;SDS011;39838;59.938;30.642;2022-08-11T03:42:14;31.75;;;13.05;;
48925;SDS011;39838;59.938;30.642;2022-08-11T03:47:35;26.05;;;12.65;;
48925;SDS011;39838;59.938;30.642;2022-08-11T03:50:15;24.55;;;12.30;;
48925;SDS011;39838;59.938;30.642;2022-08-11T03:53:01;24.75;;;12.43;;
48925;SDS011;39838;59.938;30.642;2022-08-11T03:55:51;26.52;;;12.05;;
48925;SDS011;39838;59.938;30.642;2022-08-11T03:59:01;27.20;;;12.38;;
48925;SDS011;39838;59.938;30.642;2022-08-11T04:11:16;18.42;;;10.25;;
48925;SDS011;39838;59.938;30.642;2022-08-11T04:14:24;17.90;;;9.98;;
48925;SDS011;39838;59.938;30.642;2022-08-11T04:17:57;17.23;;;8.93;;
48925;SDS011;39838;59.938;30.642;2022-08-11T04:30:03;16.17;;;8.68;;
48925;SDS011;39838;59.938;30.642;2022-08-11T04:32:45;18.27;;;8.10;;
48925;SDS011;39838;59.938;30.642;2022-08-11T04:35:33;12.05;;;7.65;;
48925;SDS011;39838;59.938;30.642;2022-08-11T04:43:58;11.68;;;7.55;;
48925;SDS011;39838;59.938;30.642;2022-08-11T04:50:14;12.40;;;6.65;;
48925;SDS011;39838;59.938;30.642;2022-08-11T04:56:11;10.07;;;6.28;;
48925;SDS011;39838;59.938;30.642;2022-08-11T04:59:07;16.20;;;6.28;;
48925;SDS011;39838;59.938;30.642;2022-08-11T05:02:13;10.93;;;6.05;;
48925;SDS011;39838;59.938;30.642;2022-08-11T05:05:18;12.48;;;6.22;;
48925;SDS011;39838;59.938;30.642;2022-08-11T05:08:12;12.07;;;5.72;;
48925;SDS011;39838;59.938;30.642;2022-08-11T05:11:06;10.00;;;6.03;;
48925;SDS011;39838;59.938;30.642;2022-08-11T05:13:49;12.23;;;5.35;;
48925;SDS011;39838;59.938;30.642;2022-08-11T05:16:47;11.30;;;5.35;;
48925;SDS011;39838;59.938;30.642;2022-08-11T05:19:34;10.43;;;5.00;;
48925;SDS011;39838;59.938;30.642;2022-08-11T05:22:20;11.60;;;4.68;;
48925;SDS011;39838;59.938;30.642;2022-08-11T05:25:10;11.80;;;4.35;;
48925;SDS011;39838;59.938;30.642;2022-08-11T05:27:59;12.20;;;4.40;;
48925;SDS011;39838;59.938;30.642;2022-08-11T05:30:49;13.18;;;4.35;;
48925;SDS011;39838;59.938;30.642;2022-08-11T05:33:44;12.35;;;3.88;;
48925;SDS011;39838;59.938;30.642;2022-08-11T05:36:32;8.32;;;3.85;;
48925;SDS011;39838;59.938;30.642;2022-08-11T05:39:21;13.88;;;3.88;;
48925;SDS011;39838;59.938;30.642;2022-08-11T05:42:08;13.82;;;3.90;;
48925;SDS011;39838;59.938;30.642;2022-08-11T05:44:54;11.77;;;3.85;;
48925;SDS011;39838;59.938;30.642;2022-08-11T05:47:42;15.93;;;3.75;;
48925;SDS011;39838;59.938;30.642;2022-08-11T05:50:33;8.40;;;3.95;;
48925;SDS011;39838;59.938;30.642;2022-08-11T05:53:18;13.95;;;3.83;;
48925;SDS011;39838;59.938;30.642;2022-08-11T05:56:03;16.95;;;3.60;;
48925;SDS011;39838;59.938;30.642;2022-08-11T05:58:45;10.82;;;3.42;;
48925;SDS011;39838;59.938;30.642;2022-08-11T06:01:20;18.55;;;3.78;;
48925;SDS011;39838;59.938;30.642;2022-08-11T06:03:49;14.20;;;4.03;;
48925;SDS011;39838;59.938;30.642;2022-08-11T06:06:36;12.68;;;3.40;;
48925;SDS011;39838;59.938;30.642;2022-08-11T06:09:05;10.55;;;3.30;;
48925;SDS011;39838;59.938;30.642;2022-08-11T06:11:36;15.18;;;3.50;;
48925;SDS011;39838;59.938;30.642;2022-08-11T06:14:05;15.15;;;3.60;;
48925;SDS011;39838;59.938;30.642;2022-08-11T06:16:34;13.27;;;3.60;;
48925;SDS011;39838;59.938;30.642;2022-08-11T06:19:03;18.70;;;3.45;;
48925;SDS011;39838;59.938;30.642;2022-08-11T06:21:31;11.80;;;3.63;;
48925;SDS011;39838;59.938;30.642;2022-08-11T06:24:01;10.95;;;3.30;;
48925;SDS011;39838;59.938;30.642;2022-08-11T06:26:31;9.57;;;3.40;;
48925;SDS011;39838;59.938;30.642;2022-08-11T06:28:59;11.07;;;3.20;;
48925;SDS011;39838;59.938;30.642;2022-08-11T06:43:02;11.23;;;2.80;;
48925;SDS011;39838;59.938;30.642;2022-08-11T06:45:37;8.77;;;2.78;;
48925;SDS011;39838;59.938;30.642;2022-08-11T06:48:14;6.47;;;3.00;;
48925;SDS011;39838;59.938;30.642;2022-08-11T06:50:47;12.55;;;3.03;;
48925;SDS011;39838;59.938;30.642;2022-08-11T06:53:33;5.93;;;2.70;;
48925;SDS011;39838;59.938;30.642;2022-08-11T06:56:04;6.05;;;2.95;;
48925;SDS011;39838;59.938;30.642;2022-08-11T06:58:52;16.92;;;3.40;;
48925;SDS011;39838;59.938;30.642;2022-08-11T07:01:40;9.50;;;2.70;;
48925;SDS011;39838;59.938;30.642;2022-08-11T07:04:12;6.00;;;2.50;;
48925;SDS011;39838;59.938;30.642;2022-08-11T07:06:48;7.65;;;2.45;;
48925;SDS011;39838;59.938;30.642;2022-08-11T07:12:47;8.20;;;2.60;;
48925;SDS011;39838;59.938;30.642;2022-08-11T07:15:38;10.35;;;2.10;;
48925;SDS011;39838;59.938;30.642;2022-08-11T07:18:10;7.55;;;2.30;;
48925;SDS011;39838;59.938;30.642;2022-08-11T07:21:06;3.35;;;2.30;;
48925;SDS011;39838;59.938;30.642;2022-08-11T07:23:54;9.25;;;3.00;;
48925;SDS011;39838;59.938;30.642;2022-08-11T07:26:42;6.05;;;2.40;;
48925;SDS011;39838;59.938;30.642;2022-08-11T07:32:13;4.97;;;2.28;;
48925;SDS011;39838;59.938;30.642;2022-08-11T07:34:45;6.88;;;2.15;;
48925;SDS011;39838;59.938;30.642;2022-08-11T07:37:18;4.53;;;2.28;;
48925;SDS011;39838;59.938;30.642;2022-08-11T07:39:47;4.25;;;2.17;;
48925;SDS011;39838;59.938;30.642;2022-08-11T07:42:17;4.95;;;2.40;;
48925;SDS011;39838;59.938;30.642;2022-08-11T07:44:47;5.30;;;2.20;;
48925;SDS011;39838;59.938;30.642;2022-08-11T07:47:35;3.90;;;2.47;;
48925;SDS011;39838;59.938;30.642;2022-08-11T07:50:21;5.97;;;2.33;;
48925;SDS011;39838;59.938;30.642;2022-08-11T07:53:06;4.90;;;2.40;;
48925;SDS011;39838;59.938;30.642;2022-08-11T07:55:34;5.30;;;2.50;;
48925;SDS011;39838;59.938;30.642;2022-08-11T07:58:02;7.57;;;2.47;;
48925;SDS011;39838;59.938;30.642;2022-08-11T08:00:49;9.88;;;2.30;;
48925;SDS011;39838;59.938;30.642;2022-08-11T08:03:36;2.97;;;1.80;;
48925;SDS011;39838;59.938;30.642;2022-08-11T08:06:22;4.97;;;2.03;;
48925;SDS011;39838;59.938;30.642;2022-08-11T08:09:07;9.20;;;2.47;;
48925;SDS011;39838;59.938;30.642;2022-08-11T08:11:56;5.63;;;2.47;;
48925;SDS011;39838;59.938;30.642;2022-08-11T08:14:43;3.92;;;2.10;;
48925;SDS011;39838;59.938;30.642;2022-08-11T08:17:27;6.45;;;2.47;;
48925;SDS011;39838;59.938;30.642;2022-08-11T08:20:18;5.32;;;2.28;;
48925;SDS011;39838;59.938;30.642;2022-08-11T08:22:47;5.97;;;2.42;;
48925;SDS011;39838;59.938;30.642;2022-08-11T08:25:22;5.57;;;2.40;;
48925;SDS011;39838;59.938;30.642;2022-08-11T08:27:50;7.25;;;2.50;;
48925;SDS011;39838;59.938;30.642;2022-08-11T08:30:18;7.22;;;2.60;;
48925;SDS011;39838;59.938;30.642;2022-08-11T08:33:03;5.55;;;2.33;;
48925;SDS011;39838;59.938;30.642;2022-08-11T08:35:32;4.97;;;2.30;;
48925;SDS011;39838;59.938;30.642;2022-08-11T08:38:04;3.40;;;2.30;;
48925;SDS011;39838;59.938;30.642;2022-08-11T08:40:31;5.90;;;2.40;;
48925;SDS011;39838;59.938;30.642;2022-08-11T08:43:02;5.22;;;2.40;;
48925;SDS011;39838;59.938;30.642;2022-08-11T08:45:34;6.00;;;2.25;;
48925;SDS011;39838;59.938;30.642;2022-08-11T08:48:04;4.90;;;2.05;;
48925;SDS011;39838;59.938;30.642;2022-08-11T08:50:37;3.83;;;2.30;;
48925;SDS011;39838;59.938;30.642;2022-08-11T08:53:27;6.50;;;2.20;;
48925;SDS011;39838;59.938;30.642;2022-08-11T08:55:59;4.32;;;2.30;;
48925;SDS011;39838;59.938;30.642;2022-08-11T08:58:27;3.17;;;2.10;;
48925;SDS011;39838;59.938;30.642;2022-08-11T09:00:55;6.85;;;1.92;;
48925;SDS011;39838;59.938;30.642;2022-08-11T09:03:25;5.18;;;2.28;;
48925;SDS011;39838;59.938;30.642;2022-08-11T09:05:54;4.07;;;2.42;;
48925;SDS011;39838;59.938;30.642;2022-08-11T09:08:22;6.22;;;2.28;;
48925;SDS011;39838;59.938;30.642;2022-08-11T09:10:50;4.90;;;2.50;;
48925;SDS011;39838;59.938;30.642;2022-08-11T09:13:32;4.70;;;2.20;;
48925;SDS011;39838;59.938;30.642;2022-08-11T09:16:00;6.35;;;2.25;;
48925;SDS011;39838;59.938;30.642;2022-08-11T09:18:27;6.65;;;2.50;;
48925;SDS011;39838;59.938;30.642;2022-08-11T09:21:00;6.65;;;2.60;;
48925;SDS011;39838;59.938;30.642;2022-08-11T09:23:31;4.70;;;2.53;;
48925;SDS011;39838;59.938;30.642;2022-08-11T09:29:01;4.82;;;2.20;;
48925;SDS011;39838;59.938;30.642;2022-08-11T09:31:30;5.78;;;2.33;;
48925;SDS011;39838;59.938;30.642;2022-08-11T09:33:58;3.88;;;2.63;;
48925;SDS011;39838;59.938;30.642;2022-08-11T09:36:29;4.35;;;2.20;;
48925;SDS011;39838;59.938;30.642;2022-08-11T09:39:14;5.70;;;2.20;;
48925;SDS011;39838;59.938;30.642;2022-08-11T09:42:01;4.30;;;2.55;;
48925;SDS011;39838;59.938;30.642;2022-08-11T09:44:29;5.68;;;2.38;;
48925;SDS011;39838;59.938;30.642;2022-08-11T09:47:18;6.45;;;2.30;;
48925;SDS011;39838;59.938;30.642;2022-08-11T09:49:48;4.60;;;2.30;;
48925;SDS011;39838;59.938;30.642;2022-08-11T09:52:19;6.32;;;2.47;;
48925;SDS011;39838;59.938;30.642;2022-08-11T09:54:49;3.10;;;1.98;;
48925;SDS011;39838;59.938;30.642;2022-08-11T09:57:17;4.93;;;2.40;;
48925;SDS011;39838;59.938;30.642;2022-08-11T10:00:03;9.15;;;2.60;;
48925;SDS011;39838;59.938;30.642;2022-08-11T10:02:33;8.07;;;2.42;;
48925;SDS011;39838;59.938;30.642;2022-08-11T10:05:06;4.55;;;2.30;;
48925;SDS011;39838;59.938;30.642;2022-08-11T10:07:52;8.73;;;2.28;;
48925;SDS011;39838;59.938;30.642;2022-08-11T10:10:21;5.40;;;2.10;;
48925;SDS011;39838;59.938;30.642;2022-08-11T10:12:50;9.38;;;2.70;;
48925;SDS011;39838;59.938;30.642;2022-08-11T10:18:03;4.38;;;2.30;;
48925;SDS011;39838;59.938;30.642;2022-08-11T10:20:51;5.93;;;2.22;;
48925;SDS011;39838;59.938;30.642;2022-08-11T10:23:24;9.52;;;2.60;;
48925;SDS011;39838;59.938;30.642;2022-08-11T10:26:10;5.85;;;2.50;;
48925;SDS011;39838;59.938;30.642;2022-08-11T10:28:55;5.47;;;2.40;;
48925;SDS011;39838;59.938;30.642;2022-08-11T10:31:23;7.13;;;2.40;;
48925;SDS011;39838;59.938;30.642;2022-08-11T10:34:08;5.60;;;1.98;;
48925;SDS011;39838;59.938;30.642;2022-08-11T10:36:37;3.20;;;2.28;;
48925;SDS011;39838;59.938;30.642;2022-08-11T10:39:11;5.38;;;2.40;;
48925;SDS011;39838;59.938;30.642;2022-08-11T10:41:42;5.72;;;2.40;;
48925;SDS011;39838;59.938;30.642;2022-08-11T10:44:28;3.97;;;2.30;;
48925;SDS011;39838;59.938;30.642;2022-08-11T10:46:59;3.78;;;2.53;;
48925;SDS011;39838;59.938;30.642;2022-08-11T10:49:45;5.72;;;2.50;;
48925;SDS011;39838;59.938;30.642;2022-08-11T10:52:33;6.63;;;2.75;;
48925;SDS011;39838;59.938;30.642;2022-08-11T10:55:20;8.52;;;2.50;;
48925;SDS011;39838;59.938;30.642;2022-08-11T10:58:05;5.28;;;2.38;;
48925;SDS011;39838;59.938;30.642;2022-08-11T11:00:51;5.35;;;2.38;;
48925;SDS011;39838;59.938;30.642;2022-08-11T11:03:21;5.50;;;2.55;;
48925;SDS011;39838;59.938;30.642;2022-08-11T11:05:50;6.13;;;2.30;;
48925;SDS011;39838;59.938;30.642;2022-08-11T11:08:19;4.65;;;2.20;;
48925;SDS011;39838;59.938;30.642;2022-08-11T11:11:12;7.18;;;1.85;;
48925;SDS011;39838;59.938;30.642;2022-08-11T11:13:41;8.07;;;2.00;;
48925;SDS011;39838;59.938;30.642;2022-08-11T11:16:30;7.78;;;2.08;;
48925;SDS011;39838;59.938;30.642;2022-08-11T11:19:16;8.48;;;2.22;;
48925;SDS011;39838;59.938;30.642;2022-08-11T11:21:49;8.95;;;2.33;;
48925;SDS011;39838;59.938;30.642;2022-08-11T11:24:22;4.65;;;2.42;;
48925;SDS011;39838;59.938;30.642;2022-08-11T11:27:04;4.63;;;2.10;;
48925;SDS011;39838;59.938;30.642;2022-08-11T11:29:50;5.35;;;2.45;;
48925;SDS011;39838;59.938;30.642;2022-08-11T11:32:23;4.45;;;2.33;;
48925;SDS011;39838;59.938;30.642;2022-08-11T11:35:13;6.43;;;2.20;;
48925;SDS011;39838;59.938;30.642;2022-08-11T11:37:50;4.93;;;2.50;;
48925;SDS011;39838;59.938;30.642;2022-08-11T11:40:19;3.78;;;2.40;;
48925;SDS011;39838;59.938;30.642;2022-08-11T11:42:50;8.27;;;2.60;;
48925;SDS011;39838;59.938;30.642;2022-08-11T11:45:19;6.57;;;2.30;;
48925;SDS011;39838;59.938;30.642;2022-08-11T11:47:48;4.15;;;2.17;;
48925;SDS011;39838;59.938;30.642;2022-08-11T11:50:17;3.45;;;2.00;;
48925;SDS011;39838;59.938;30.642;2022-08-11T11:52:49;6.32;;;2.25;;
48925;SDS011;39838;59.938;30.642;2022-08-11T11:55:19;3.97;;;2.00;;
48925;SDS011;39838;59.938;30.642;2022-08-11T11:57:52;4.55;;;2.00;;
48925;SDS011;39838;59.938;30.642;2022-08-11T12:00:37;5.18;;;2.17;;
48925;SDS011;39838;59.938;30.642;2022-08-11T12:03:22;4.78;;;1.90;;
48925;SDS011;39838;59.938;30.642;2022-08-11T12:05:51;5.30;;;2.30;;
48925;SDS011;39838;59.938;30.642;2022-08-11T12:08:19;4.88;;;2.05;;
48925;SDS011;39838;59.938;30.642;2022-08-11T12:10:48;3.10;;;1.83;;
48925;SDS011;39838;59.938;30.642;2022-08-11T12:13:40;4.03;;;2.15;;
48925;SDS011;39838;59.938;30.642;2022-08-11T12:16:08;7.57;;;2.20;;
48925;SDS011;39838;59.938;30.642;2022-08-11T12:18:36;4.18;;;2.03;;
48925;SDS011;39838;59.938;30.642;2022-08-11T12:21:06;5.03;;;2.00;;
48925;SDS011;39838;59.938;30.642;2022-08-11T12:23:36;4.63;;;2.13;;
48925;SDS011;39838;59.938;30.642;2022-08-11T12:26:21;3.42;;;2.00;;
48925;SDS011;39838;59.938;30.642;2022-08-11T12:29:20;5.47;;;2.05;;
48925;SDS011;39838;59.938;30.642;2022-08-11T12:31:51;5.63;;;1.98;;
48925;SDS011;39838;59.938;30.642;2022-08-11T12:34:22;3.88;;;1.90;;
48925;SDS011;39838;59.938;30.642;2022-08-11T12:36:54;8.00;;;2.50;;
48925;SDS011;39838;59.938;30.642;2022-08-11T12:39:32;7.20;;;2.33;;
48925;SDS011;39838;59.938;30.642;2022-08-11T12:42:20;6.47;;;2.10;;
48925;SDS011;39838;59.938;30.642;2022-08-11T12:45:10;9.40;;;2.17;;
48925;SDS011;39838;59.938;30.642;2022-08-11T12:47:56;10.32;;;2.20;;
48925;SDS011;39838;59.938;30.642;2022-08-11T12:50:46;3.78;;;1.70;;
48925;SDS011;39838;59.938;30.642;2022-08-11T12:53:37;5.90;;;1.85;;
48925;SDS011;39838;59.938;30.642;2022-08-11T12:56:09;3.85;;;1.70;;
48925;SDS011;39838;59.938;30.642;2022-08-11T12:58:55;4.60;;;1.95;;
48925;SDS011;39838;59.938;30.642;2022-08-11T13:01:42;6.72;;;1.90;;
48925;SDS011;39838;59.938;30.642;2022-08-11T13:04:27;3.40;;;1.70;;
48925;SDS011;39838;59.938;30.642;2022-08-11T13:07:13;4.20;;;1.58;;
48925;SDS011;39838;59.938;30.642;2022-08-11T13:09:42;5.13;;;1.92;;
48925;SDS011;39838;59.938;30.642;2022-08-11T13:12:11;4.53;;;1.55;;
48925;SDS011;39838;59.938;30.642;2022-08-11T13:14:56;2.22;;;1.45;;
48925;SDS011;39838;59.938;30.642;2022-08-11T13:17:26;3.78;;;1.75;;
48925;SDS011;39838;59.938;30.642;2022-08-11T13:19:55;4.05;;;1.65;;
48925;SDS011;39838;59.938;30.642;2022-08-11T13:22:24;13.70;;;1.70;;
48925;SDS011;39838;59.938;30.642;2022-08-11T13:24:54;3.03;;;1.80;;
48925;SDS011;39838;59.938;30.642;2022-08-11T13:27:22;6.25;;;1.70;;
48925;SDS011;39838;59.938;30.642;2022-08-11T13:29:51;7.72;;;1.83;;
48925;SDS011;39838;59.938;30.642;2022-08-11T13:32:41;4.70;;;1.90;;
48925;SDS011;39838;59.938;30.642;2022-08-11T13:35:11;8.68;;;2.08;;
48925;SDS011;39838;59.938;30.642;2022-08-11T13:37:42;5.03;;;1.70;;
48925;SDS011;39838;59.938;30.642;2022-08-11T13:40:11;6.20;;;1.90;;
48925;SDS011;39838;59.938;30.642;2022-08-11T13:42:39;6.70;;;2.38;;
48925;SDS011;39838;59.938;30.642;2022-08-11T13:45:07;3.83;;;1.63;;
48925;SDS011;39838;59.938;30.642;2022-08-11T13:47:35;3.63;;;1.60;;
48925;SDS011;39838;59.938;30.642;2022-08-11T13:50:05;7.80;;;1.70;;
48925;SDS011;39838;59.938;30.642;2022-08-11T13:52:34;2.83;;;1.70;;
48925;SDS011;39838;59.938;30.642;2022-08-11T13:55:04;3.67;;;1.70;;
48925;SDS011;39838;59.938;30.642;2022-08-11T13:57:33;3.85;;;1.88;;
48925;SDS011;39838;59.938;30.642;2022-08-11T14:00:03;7.60;;;1.88;;
48925;SDS011;39838;59.938;30.642;2022-08-11T14:02:40;3.75;;;1.70;;
48925;SDS011;39838;59.938;30.642;2022-08-11T14:05:11;2.95;;;1.60;;
48925;SDS011;39838;59.938;30.642;2022-08-11T14:07:42;3.20;;;1.73;;
48925;SDS011;39838;59.938;30.642;2022-08-11T14:10:13;2.30;;;1.33;;
48925;SDS011;39838;59.938;30.642;2022-08-11T14:12:43;6.47;;;1.80;;
48925;SDS011;39838;59.938;30.642;2022-08-11T14:15:34;4.82;;;1.70;;
48925;SDS011;39838;59.938;30.642;2022-08-11T14:18:02;4.60;;;1.73;;
48925;SDS011;39838;59.938;30.642;2022-08-11T14:20:33;5.95;;;1.58;;
48925;SDS011;39838;59.938;30.642;2022-08-11T14:23:27;8.05;;;1.80;;
48925;SDS011;39838;59.938;30.642;2022-08-11T14:25:58;8.15;;;1.85;;
48925;SDS011;39838;59.938;30.642;2022-08-11T14:28:43;8.18;;;2.17;;
48925;SDS011;39838;59.938;30.642;2022-08-11T14:31:11;4.15;;;1.90;;
48925;SDS011;39838;59.938;30.642;2022-08-11T14:33:40;4.18;;;1.77;;
48925;SDS011;39838;59.938;30.642;2022-08-11T14:36:10;5.40;;;1.70;;
48925;SDS011;39838;59.938;30.642;2022-08-11T14:38:38;6.40;;;1.70;;
48925;SDS011;39838;59.938;30.642;2022-08-11T14:41:07;5.32;;;1.95;;
48925;SDS011;39838;59.938;30.642;2022-08-11T14:43:54;6.10;;;1.80;;
48925;SDS011;39838;59.938;30.642;2022-08-11T14:46:45;3.33;;;1.58;;
48925;SDS011;39838;59.938;30.642;2022-08-11T14:49:30;7.68;;;2.20;;
48925;SDS011;39838;59.938;30.642;2022-08-11T14:52:02;3.17;;;1.90;;
48925;SDS011;39838;59.938;30.642;2022-08-11T14:54:33;7.78;;;1.85;;
48925;SDS011;39838;59.938;30.642;2022-08-11T14:57:19;7.72;;;1.55;;
48925;SDS011;39838;59.938;30.642;2022-08-11T14:59:47;3.13;;;1.60;;
48925;SDS011;39838;59.938;30.642;2022-08-11T15:02:17;2.63;;;1.70;;
48925;SDS011;39838;59.938;30.642;2022-08-11T15:05:02;5.93;;;1.83;;
48925;SDS011;39838;59.938;30.642;2022-08-11T15:07:32;3.83;;;1.73;;
48925;SDS011;39838;59.938;30.642;2022-08-11T15:10:01;5.32;;;1.60;;
48925;SDS011;39838;59.938;30.642;2022-08-11T15:12:31;5.47;;;1.67;;
48925;SDS011;39838;59.938;30.642;2022-08-11T15:15:00;5.13;;;2.35;;
48925;SDS011;39838;59.938;30.642;2022-08-11T15:17:45;4.28;;;2.28;;
48925;SDS011;39838;59.938;30.642;2022-08-11T15:20:15;7.10;;;2.10;;
48925;SDS011;39838;59.938;30.642;2022-08-11T15:23:03;6.00;;;2.13;;
48925;SDS011;39838;59.938;30.642;2022-08-11T15:25:49;5.90;;;2.10;;
48925;SDS011;39838;59.938;30.642;2022-08-11T15:28:19;6.88;;;2.03;;
48925;SDS011;39838;59.938;30.642;2022-08-11T15:31:06;6.15;;;2.00;;
48925;SDS011;39838;59.938;30.642;2022-08-11T15:33:51;9.43;;;2.28;;
48925;SDS011;39838;59.938;30.642;2022-08-11T15:36:38;14.45;;;3.22;;
48925;SDS011;39838;59.938;30.642;2022-08-11T15:39:27;5.78;;;2.20;;
48925;SDS011;39838;59.938;30.642;2022-08-11T15:41:58;4.93;;;2.10;;
48925;SDS011;39838;59.938;30.642;2022-08-11T15:44:46;7.32;;;2.17;;
48925;SDS011;39838;59.938;30.642;2022-08-11T15:47:36;8.63;;;2.45;;
48925;SDS011;39838;59.938;30.642;2022-08-11T15:50:07;8.45;;;2.20;;
48925;SDS011;39838;59.938;30.642;2022-08-11T15:52:41;8.48;;;2.20;;
48925;SDS011;39838;59.938;30.642;2022-08-11T15:55:15;3.40;;;1.90;;
48925;SDS011;39838;59.938;30.642;2022-08-11T15:57:45;5.97;;;2.00;;
48925;SDS011;39838;59.938;30.642;2022-08-11T16:00:30;9.75;;;2.20;;
48925;SDS011;39838;59.938;30.642;2022-08-11T16:03:15;3.83;;;2.20;;
48925;SDS011;39838;59.938;30.642;2022-08-11T16:06:02;4.90;;;2.30;;
48925;SDS011;39838;59.938;30.642;2022-08-11T16:08:30;5.43;;;2.28;;
48925;SDS011;39838;59.938;30.642;2022-08-11T16:11:01;3.63;;;2.10;;
48925;SDS011;39838;59.938;30.642;2022-08-11T16:13:29;6.22;;;2.20;;
48925;SDS011;39838;59.938;30.642;2022-08-11T16:16:15;6.65;;;2.10;;
48925;SDS011;39838;59.938;30.642;2022-08-11T16:18:44;4.78;;;1.98;;
48925;SDS011;39838;59.938;30.642;2022-08-11T16:21:21;11.00;;;2.15;;
48925;SDS011;39838;59.938;30.642;2022-08-11T16:23:51;6.13;;;2.13;;
48925;SDS011;39838;59.938;30.642;2022-08-11T16:26:22;2.83;;;2.00;;
48925;SDS011;39838;59.938;30.642;2022-08-11T16:28:51;4.75;;;2.25;;
48925;SDS011;39838;59.938;30.642;2022-08-11T16:31:20;6.07;;;2.30;;
48925;SDS011;39838;59.938;30.642;2022-08-11T16:33:49;4.72;;;2.50;;
48925;SDS011;39838;59.938;30.642;2022-08-11T16:36:19;9.65;;;2.90;;
48925;SDS011;39838;59.938;30.642;2022-08-11T16:39:05;5.28;;;2.40;;
48925;SDS011;39838;59.938;30.642;2022-08-11T16:41:35;4.28;;;2.33;;
48925;SDS011;39838;59.938;30.642;2022-08-11T16:44:21;5.95;;;2.20;;
48925;SDS011;39838;59.938;30.642;2022-08-11T16:47:09;10.40;;;2.40;;
48925;SDS011;39838;59.938;30.642;2022-08-11T16:49:41;7.65;;;2.50;;
48925;SDS011;39838;59.938;30.642;2022-08-11T16:52:10;3.92;;;2.05;;
48925;SDS011;39838;59.938;30.642;2022-08-11T16:54:38;6.97;;;2.65;;
48925;SDS011;39838;59.938;30.642;2022-08-11T16:57:09;6.70;;;2.45;;
48925;SDS011;39838;59.938;30.642;2022-08-11T16:59:59;9.65;;;2.38;;
48925;SDS011;39838;59.938;30.642;2022-08-11T17:02:30;5.00;;;2.67;;